createdAt,value
2018-11-03T00:02:42.893Z,77.0
2018-11-03T00:07:42.094Z,77.0
2018-11-03T00:12:28.696Z,77.1
2018-11-03T00:17:28.136Z,77.0
2018-11-03T00:22:28.600Z,77.1
2018-11-03T00:27:28.284Z,77.1
2018-11-03T00:32:28.366Z,77.1
2018-11-03T00:37:28.832Z,77.2
2018-11-03T00:42:28.351Z,77.2
2018-11-03T00:47:28.590Z,77.0
2018-11-03T00:52:28.217Z,76.8
2018-11-03T00:57:28.502Z,76.8
2018-11-03T01:02:27.795Z,76.9
2018-11-03T01:07:28.677Z,76.8
2018-11-03T01:12:27.976Z,76.7
2018-11-03T01:17:29.363Z,76.9
2018-11-03T01:22:27.966Z,76.8
2018-11-03T01:27:28.303Z,77.1
2018-11-03T01:32:28.285Z,77.2
2018-11-03T01:37:28.567Z,77.0
2018-11-03T01:42:27.896Z,77.0
2018-11-03T01:47:28.443Z,76.7
2018-11-03T01:52:27.965Z,76.7
2018-11-03T01:57:28.847Z,76.3
2018-11-03T02:02:27.969Z,76.3
2018-11-03T02:07:28.782Z,76.1
2018-11-03T02:12:28.061Z,76.4
2018-11-03T02:17:28.549Z,76.5
2018-11-03T02:22:28.028Z,76.5
2018-11-03T02:27:28.203Z,76.3
2018-11-03T02:32:29.177Z,76.4
2018-11-03T02:37:28.339Z,76.0
2018-11-03T02:42:28.213Z,76.0
2018-11-03T02:47:28.163Z,76.2
2018-11-03T02:52:28.271Z,76.2
2018-11-03T02:57:28.587Z,76.3
2018-11-03T03:02:28.818Z,76.1
2018-11-03T03:07:28.573Z,76.2
2018-11-03T03:12:27.531Z,75.9
2018-11-03T03:17:27.893Z,76.0
2018-11-03T03:22:27.642Z,76.0
2018-11-03T03:27:29.089Z,75.9
2018-11-03T03:32:27.617Z,75.8
2018-11-03T03:37:28.894Z,75.9
2018-11-03T03:42:28.440Z,75.9
2018-11-03T03:47:28.875Z,75.9
2018-11-03T03:52:27.708Z,75.7
2018-11-03T03:57:28.681Z,75.8
2018-11-03T04:02:29.704Z,75.9
2018-11-03T04:07:28.983Z,76.0
2018-11-03T04:12:28.053Z,75.5
2018-11-03T04:17:30.253Z,75.5
2018-11-03T04:22:29.188Z,75.8
2018-11-03T04:27:28.554Z,75.8
2018-11-03T04:32:28.410Z,75.8
2018-11-03T04:37:28.867Z,75.9
2018-11-03T04:42:28.835Z,75.7
2018-11-03T04:47:29.033Z,75.8
2018-11-03T04:52:28.148Z,75.8
2018-11-03T04:57:28.492Z,75.8
2018-11-03T05:02:29.140Z,75.6
2018-11-03T05:07:28.228Z,75.6
2018-11-03T05:12:28.834Z,75.7
2018-11-03T05:17:29.142Z,75.6
2018-11-03T05:22:28.366Z,75.5
2018-11-03T05:27:28.969Z,75.6
2018-11-03T05:32:28.873Z,75.7
2018-11-03T05:37:28.949Z,75.7
2018-11-03T05:42:28.665Z,75.5
2018-11-03T05:47:28.586Z,75.6
2018-11-03T05:52:28.856Z,75.6
2018-11-03T05:57:29.019Z,75.7
2018-11-03T06:02:28.806Z,75.8
2018-11-03T06:07:28.916Z,75.8
2018-11-03T06:12:29.169Z,75.6
2018-11-03T06:17:29.252Z,75.6
2018-11-03T06:22:28.631Z,75.5
2018-11-03T06:27:28.863Z,75.6
2018-11-03T06:32:29.488Z,75.5
2018-11-03T06:37:28.852Z,75.4
2018-11-03T06:42:29.891Z,75.4
2018-11-03T06:47:29.436Z,75.3
2018-11-03T06:52:28.795Z,75.5
2018-11-03T06:57:28.349Z,75.5
2018-11-03T07:02:28.054Z,75.2
2018-11-03T07:07:28.685Z,75.2
2018-11-03T07:12:29.615Z,75.1
2018-11-03T07:17:29.289Z,75.1
2018-11-03T07:22:28.642Z,75.1
2018-11-03T07:27:29.037Z,75.3
2018-11-03T07:32:28.918Z,75.2
2018-11-03T07:37:28.924Z,75.2
2018-11-03T07:42:29.341Z,75.2
2018-11-03T07:47:29.301Z,75.1
2018-11-03T07:52:28.824Z,75.1
2018-11-03T07:57:28.880Z,75.2
2018-11-03T08:02:29.252Z,75.2
2018-11-03T08:07:28.692Z,75.2
2018-11-03T08:12:29.020Z,75.1
2018-11-03T08:17:28.590Z,75.2
2018-11-03T08:22:28.048Z,75.2
2018-11-03T08:27:28.580Z,75.1
2018-11-03T08:32:28.973Z,74.8
2018-11-03T08:37:28.356Z,75.0
2018-11-03T08:42:28.866Z,75.1
2018-11-03T08:47:28.307Z,75.0
2018-11-03T08:52:29.907Z,75.0
2018-11-03T08:57:29.329Z,75.0
2018-11-03T09:02:28.498Z,75.0
2018-11-03T09:07:29.519Z,75.2
2018-11-03T09:12:29.404Z,75.0
2018-11-03T09:17:28.327Z,75.1
2018-11-03T09:22:29.440Z,75.0
2018-11-03T09:27:29.729Z,75.0
2018-11-03T09:32:28.934Z,75.1
2018-11-03T09:37:29.732Z,75.0
2018-11-03T09:42:28.593Z,75.1
2018-11-03T09:47:29.139Z,75.1
2018-11-03T09:52:28.544Z,75.0
2018-11-03T09:57:29.209Z,75.0
2018-11-03T10:02:29.530Z,74.6
2018-11-03T10:07:29.700Z,74.6
2018-11-03T10:12:28.710Z,74.5
2018-11-03T10:17:28.482Z,75.0
2018-11-03T10:22:29.564Z,75.0
2018-11-03T10:27:28.256Z,75.1
2018-11-03T10:32:28.495Z,75.1
2018-11-03T10:37:28.871Z,75.1
2018-11-03T10:42:29.497Z,75.2
2018-11-03T10:47:29.206Z,74.8
2018-11-03T10:52:28.720Z,74.8
2018-11-03T10:57:28.565Z,74.8
2018-11-03T11:02:29.256Z,75.1
2018-11-03T11:07:28.563Z,75.1
2018-11-03T11:12:28.751Z,74.8
2018-11-03T11:17:29.087Z,74.5
2018-11-03T11:22:28.894Z,74.6
2018-11-03T11:27:30.014Z,74.4
2018-11-03T11:32:29.161Z,74.4
2018-11-03T11:37:31.770Z,74.3
2018-11-03T11:42:29.021Z,73.7
2018-11-03T11:47:28.933Z,73.9
2018-11-03T11:52:28.807Z,73.7
2018-11-03T11:57:28.719Z,73.5
2018-11-03T12:02:30.036Z,75.2
2018-11-03T12:07:29.163Z,75.2
2018-11-03T12:12:28.906Z,75.5
2018-11-03T12:17:28.871Z,76.0
2018-11-03T12:22:28.613Z,76.0
2018-11-03T12:27:29.244Z,75.9
2018-11-03T12:32:28.058Z,75.8
2018-11-03T12:37:28.904Z,75.8
2018-11-03T12:42:29.505Z,75.5
2018-11-03T12:47:28.676Z,76.0
2018-11-03T12:52:28.246Z,76.2
2018-11-03T12:57:28.657Z,76.0
2018-11-03T13:02:28.122Z,75.7
2018-11-03T13:07:29.735Z,75.3
2018-11-03T13:12:29.479Z,75.7
2018-11-03T13:17:28.496Z,75.9
2018-11-03T13:22:28.139Z,75.9
2018-11-03T13:27:28.860Z,76.0
2018-11-03T13:32:29.301Z,75.5
2018-11-03T13:37:28.697Z,75.7
2018-11-03T13:42:28.378Z,75.8
2018-11-03T13:47:29.739Z,76.4
2018-11-03T13:52:28.954Z,76.4
2018-11-03T13:57:28.204Z,76.4
2018-11-03T14:02:28.732Z,76.9
2018-11-03T14:07:29.193Z,77.0
2018-11-03T14:12:29.233Z,77.0
2018-11-03T14:17:29.143Z,76.8
2018-11-03T14:22:28.231Z,76.8
2018-11-03T14:27:29.977Z,76.7
2018-11-03T14:32:29.318Z,76.9
2018-11-03T14:37:29.050Z,76.8
2018-11-03T14:42:28.953Z,76.9
2018-11-03T14:47:29.077Z,77.0
2018-11-03T14:52:28.808Z,77.0
2018-11-03T14:57:29.078Z,77.0
2018-11-03T15:02:29.034Z,77.0
2018-11-03T15:07:28.760Z,77.2
2018-11-03T15:12:28.854Z,77.2
2018-11-03T15:17:30.104Z,77.2
2018-11-03T15:22:28.624Z,77.3
2018-11-03T15:27:28.940Z,77.3
2018-11-03T15:32:29.679Z,77.0
2018-11-03T15:37:28.334Z,77.6
2018-11-03T15:42:28.465Z,77.4
2018-11-03T15:47:29.093Z,77.3
2018-11-03T15:52:28.385Z,77.5
2018-11-03T15:57:28.601Z,77.5
2018-11-03T16:02:28.824Z,77.3
2018-11-03T16:07:28.515Z,77.4
2018-11-03T16:12:28.784Z,77.4
2018-11-03T16:17:28.353Z,77.4
2018-11-03T16:22:28.253Z,77.5
2018-11-03T16:27:28.555Z,77.4
2018-11-03T16:32:30.449Z,77.3
2018-11-03T16:37:28.737Z,77.3
2018-11-03T16:42:28.164Z,77.4
2018-11-03T16:47:28.383Z,77.3
2018-11-03T16:52:28.773Z,77.3
2018-11-03T16:57:28.489Z,77.3
2018-11-03T17:02:29.615Z,77.3
2018-11-03T17:07:28.159Z,77.2
2018-11-03T17:12:29.033Z,77.3
2018-11-03T17:17:29.084Z,77.3
2018-11-03T17:22:28.669Z,77.3
2018-11-03T17:27:27.791Z,77.3
2018-11-03T17:32:29.407Z,77.2
2018-11-03T17:37:27.697Z,77.4
2018-11-03T17:42:29.663Z,77.4
2018-11-03T17:47:28.505Z,77.4
2018-11-03T17:52:28.551Z,77.4
2018-11-03T17:57:29.308Z,77.2
2018-11-03T18:02:28.616Z,77.3
2018-11-03T18:07:29.560Z,77.2
2018-11-03T18:12:27.731Z,77.3
2018-11-03T18:17:28.100Z,77.2
2018-11-03T18:22:29.516Z,77.2
2018-11-03T18:27:27.711Z,77.1
2018-11-03T18:32:29.183Z,77.3
2018-11-03T18:37:28.686Z,77.2
2018-11-03T18:42:28.880Z,77.2
2018-11-03T18:47:27.764Z,77.4
2018-11-03T18:52:28.199Z,77.6
2018-11-03T18:57:28.162Z,77.2
2018-11-03T19:02:28.266Z,77.3
2018-11-03T19:07:28.501Z,77.5
2018-11-03T19:12:28.108Z,77.5
2018-11-03T19:17:29.090Z,77.3
2018-11-03T19:22:27.933Z,77.3
2018-11-03T19:27:28.473Z,77.4
2018-11-03T19:32:28.608Z,77.2
2018-11-03T19:37:28.297Z,77.5
2018-11-03T19:42:28.479Z,77.4
2018-11-03T19:47:28.332Z,77.6
2018-11-03T19:52:28.462Z,77.7
2018-11-03T19:57:27.928Z,77.5
2018-11-03T20:02:28.244Z,77.6
2018-11-03T20:07:28.896Z,77.7
2018-11-03T20:12:29.029Z,77.7
2018-11-03T20:17:29.937Z,77.7
2018-11-03T20:22:28.548Z,77.6
2018-11-03T20:27:28.942Z,77.6
2018-11-03T20:32:29.141Z,77.7
2018-11-03T20:37:28.332Z,77.9
2018-11-03T20:42:28.727Z,77.8
2018-11-03T20:47:27.963Z,77.9
2018-11-03T20:52:28.325Z,78.0
2018-11-03T20:57:29.304Z,77.9
2018-11-03T21:02:28.633Z,78.0
2018-11-03T21:07:28.337Z,78.0
2018-11-03T21:12:28.140Z,77.8
2018-11-03T21:17:28.426Z,77.9
2018-11-03T21:22:28.747Z,77.9
2018-11-03T21:27:28.582Z,77.9
2018-11-03T21:32:28.893Z,78.0
2018-11-03T21:37:28.060Z,77.9
2018-11-03T21:42:29.255Z,77.8
2018-11-03T21:47:29.798Z,78.1
2018-11-03T21:52:28.445Z,78.1
2018-11-03T21:57:28.635Z,78.1
2018-11-03T22:02:28.996Z,78.3
2018-11-03T22:07:29.343Z,78.2
2018-11-03T22:12:28.445Z,78.0
2018-11-03T22:17:28.942Z,78.0
2018-11-03T22:22:28.077Z,78.2
2018-11-03T22:27:28.395Z,78.3
2018-11-03T22:32:28.222Z,78.2
2018-11-03T22:37:28.163Z,78.1
2018-11-03T22:42:28.158Z,78.1
2018-11-03T22:47:28.647Z,78.2
2018-11-03T22:52:28.355Z,78.3
2018-11-03T22:57:28.811Z,78.2
2018-11-03T23:02:28.570Z,78.3
2018-11-03T23:07:28.651Z,78.1
2018-11-03T23:12:28.497Z,78.4
2018-11-03T23:22:47.679Z,78.1
2018-11-03T23:27:45.628Z,78.4
2018-11-03T23:32:45.083Z,78.4
2018-11-03T23:37:46.031Z,78.3
2018-11-03T23:42:45.972Z,78.4
2018-11-03T23:47:46.324Z,78.5
2018-11-03T23:52:45.622Z,78.4
2018-11-03T23:57:45.812Z,78.4
